createdAt,value
2018-06-12T00:00:34.096Z,0
2018-06-12T00:01:34.766Z,0
2018-06-12T00:02:35.437Z,0
2018-06-12T00:03:36.108Z,0
2018-06-12T00:04:36.776Z,0
2018-06-12T00:05:37.445Z,0
2018-06-12T00:06:38.112Z,0
2018-06-12T00:07:38.782Z,0
2018-06-12T00:08:39.458Z,0
2018-06-12T00:09:40.121Z,0
2018-06-12T00:10:40.790Z,0
2018-06-12T00:11:41.461Z,0
2018-06-12T00:12:42.132Z,0
2018-06-12T00:13:42.800Z,0
2018-06-12T00:14:43.470Z,0
2018-06-12T00:15:44.139Z,0
2018-06-12T00:16:44.808Z,0
2018-06-12T00:17:45.477Z,0
2018-06-12T00:18:46.147Z,0
2018-06-12T00:19:46.818Z,0
2018-06-12T00:20:47.489Z,0
2018-06-12T00:21:48.161Z,0
2018-06-12T00:22:48.829Z,0
2018-06-12T00:23:49.498Z,0
2018-06-12T00:24:50.168Z,0
2018-06-12T00:25:50.842Z,0
2018-06-12T00:26:51.507Z,0
2018-06-12T00:27:52.178Z,0
2018-06-12T00:28:52.886Z,0
2018-06-12T00:29:53.556Z,0
2018-06-12T00:30:54.225Z,0
2018-06-12T00:31:54.894Z,0
2018-06-12T00:32:55.564Z,0
2018-06-12T00:33:56.233Z,0
2018-06-12T00:34:56.902Z,0
2018-06-12T00:35:57.572Z,0
2018-06-12T00:36:58.242Z,0
2018-06-12T00:37:58.912Z,0
2018-06-12T00:38:59.584Z,0
2018-06-12T00:40:00.292Z,0
2018-06-12T00:41:00.960Z,0
2018-06-12T00:42:01.631Z,0
2018-06-12T00:43:02.302Z,0
2018-06-12T00:44:02.975Z,0
2018-06-12T00:45:03.641Z,0
2018-06-12T00:46:04.309Z,0
2018-06-12T00:47:04.979Z,0
2018-06-12T00:48:05.649Z,0
2018-06-12T00:49:06.356Z,0
2018-06-12T00:50:07.026Z,0
2018-06-12T00:51:07.697Z,0
2018-06-12T00:52:08.367Z,0
2018-06-12T00:53:09.035Z,0
2018-06-12T00:54:09.704Z,0
2018-06-12T00:55:10.374Z,0
2018-06-12T00:56:11.043Z,0
2018-06-12T00:57:11.713Z,0
2018-06-12T00:58:12.380Z,0
2018-06-12T00:59:13.051Z,0
2018-06-12T01:00:13.722Z,0
2018-06-12T01:01:14.393Z,0
2018-06-12T01:02:15.063Z,0
2018-06-12T01:03:15.731Z,0
2018-06-12T01:04:16.401Z,0
2018-06-12T01:05:17.069Z,0
2018-06-12T01:06:17.739Z,0
2018-06-12T01:07:18.409Z,0
2018-06-12T01:08:19.115Z,0
2018-06-12T01:09:19.784Z,0
2018-06-12T01:10:20.455Z,0
2018-06-12T01:11:21.126Z,0
2018-06-12T01:12:21.796Z,0
2018-06-12T01:13:22.465Z,0
2018-06-12T01:14:23.135Z,0
2018-06-12T01:15:23.803Z,0
2018-06-12T01:16:24.472Z,0
2018-06-12T01:17:25.141Z,0
2018-06-12T01:18:25.811Z,0
2018-06-12T01:19:26.480Z,0
2018-06-12T01:20:27.152Z,0
2018-06-12T01:21:27.860Z,0
2018-06-12T01:22:28.535Z,0
2018-06-12T01:23:29.203Z,0
2018-06-12T01:24:29.871Z,0
2018-06-12T01:25:30.541Z,0
2018-06-12T01:26:31.211Z,0
2018-06-12T01:27:31.879Z,0
2018-06-12T01:28:32.552Z,0
2018-06-12T01:29:33.256Z,0
2018-06-12T01:30:33.926Z,0
2018-06-12T01:31:34.597Z,0
2018-06-12T01:32:35.265Z,0
2018-06-12T01:33:35.947Z,0
2018-06-12T01:34:36.642Z,0
2018-06-12T01:35:37.313Z,0
2018-06-12T01:36:37.994Z,0
2018-06-12T01:37:38.651Z,0
2018-06-12T01:38:39.320Z,0
2018-06-12T01:39:39.990Z,0
2018-06-12T01:40:40.659Z,0
2018-06-12T01:41:41.328Z,0
2018-06-12T01:42:41.998Z,0
2018-06-12T01:43:42.669Z,0
2018-06-12T01:44:43.340Z,0
2018-06-12T01:45:44.011Z,0
2018-06-12T01:46:44.680Z,0
2018-06-12T01:47:45.352Z,0
2018-06-12T01:48:46.019Z,0
2018-06-12T01:49:46.741Z,0
2018-06-12T01:50:47.446Z,0
2018-06-12T01:51:48.116Z,0
2018-06-12T01:52:48.822Z,0
2018-06-12T01:53:49.493Z,0
2018-06-12T01:54:50.200Z,0
2018-06-12T01:55:50.869Z,0
2018-06-12T01:56:51.539Z,0
2018-06-12T01:57:52.207Z,0
2018-06-12T01:58:52.878Z,0
2018-06-12T01:59:53.546Z,0
2018-06-12T02:00:54.215Z,0
2018-06-12T02:01:54.886Z,0
2018-06-12T02:02:55.555Z,0
2018-06-12T02:03:56.243Z,0
2018-06-12T02:04:56.934Z,0
2018-06-12T02:05:57.605Z,0
2018-06-12T02:06:58.276Z,0
2018-06-12T02:07:58.945Z,0
2018-06-12T02:08:59.614Z,0
2018-06-12T02:10:00.321Z,0
2018-06-12T02:11:00.991Z,0
2018-06-12T02:12:01.660Z,0
2018-06-12T02:13:02.330Z,0
2018-06-12T02:14:03.040Z,0
2018-06-12T02:15:03.706Z,0
2018-06-12T02:16:04.376Z,0
2018-06-12T02:17:05.047Z,0
2018-06-12T02:18:05.716Z,0
2018-06-12T02:19:06.386Z,0
2018-06-12T02:20:07.105Z,0
2018-06-12T02:21:07.773Z,0
2018-06-12T02:22:08.444Z,0
2018-06-12T02:23:09.115Z,0
2018-06-12T02:24:09.823Z,0
2018-06-12T02:25:10.495Z,0
2018-06-12T02:26:11.165Z,0
2018-06-12T02:27:11.834Z,0
2018-06-12T02:28:12.501Z,0
2018-06-12T02:29:13.170Z,0
2018-06-12T02:30:13.840Z,0
2018-06-12T02:31:14.508Z,0
2018-06-12T02:32:15.178Z,0
2018-06-12T02:33:15.847Z,0
2018-06-12T02:34:16.519Z,0
2018-06-12T02:35:17.238Z,0
2018-06-12T02:36:17.944Z,0
2018-06-12T02:37:18.611Z,0
2018-06-12T02:38:19.320Z,0
2018-06-12T02:39:19.986Z,0
2018-06-12T02:40:20.655Z,0
2018-06-12T02:41:21.325Z,0
2018-06-12T02:42:21.994Z,0
2018-06-12T02:43:22.663Z,0
2018-06-12T02:44:23.334Z,0
2018-06-12T02:45:24.034Z,0
2018-06-12T02:46:24.674Z,0
2018-06-12T02:47:25.345Z,0
2018-06-12T02:48:26.011Z,0
2018-06-12T02:49:26.680Z,0
2018-06-12T02:50:27.352Z,0
2018-06-12T02:51:28.019Z,0
2018-06-12T02:52:28.692Z,0
2018-06-12T02:53:29.355Z,0
2018-06-12T02:54:30.027Z,0
2018-06-12T02:55:30.698Z,0
2018-06-12T02:56:31.367Z,0
2018-06-12T02:57:32.036Z,0
2018-06-12T02:58:32.705Z,0
2018-06-12T02:59:33.375Z,0
2018-06-12T03:00:34.047Z,0
2018-06-12T03:01:34.722Z,0
2018-06-12T03:02:35.389Z,0
2018-06-12T03:03:36.059Z,0
2018-06-12T03:04:36.728Z,0
2018-06-12T03:05:37.399Z,0
2018-06-12T03:06:38.071Z,0
2018-06-12T03:07:38.742Z,0
2018-06-12T03:08:39.411Z,0
2018-06-12T03:09:40.081Z,0
2018-06-12T03:10:40.753Z,0
2018-06-12T03:11:41.460Z,0
2018-06-12T03:12:42.130Z,0
2018-06-12T03:13:42.800Z,0
2018-06-12T03:14:43.472Z,0
2018-06-12T03:15:44.144Z,0
2018-06-12T03:16:44.814Z,0
2018-06-12T03:17:45.482Z,0
2018-06-12T03:18:46.152Z,0
2018-06-12T03:19:46.823Z,0
2018-06-12T03:20:47.494Z,0
2018-06-12T03:21:48.165Z,0
2018-06-12T03:22:48.835Z,0
2018-06-12T03:23:49.504Z,0
2018-06-12T03:24:50.174Z,0
2018-06-12T03:25:50.845Z,0
2018-06-12T03:26:51.517Z,0
2018-06-12T03:27:52.188Z,0
2018-06-12T03:28:52.857Z,0
2018-06-12T03:29:53.529Z,0
2018-06-12T03:30:54.202Z,0
2018-06-12T03:31:54.872Z,0
2018-06-12T03:32:55.542Z,0
2018-06-12T03:33:56.212Z,5
2018-06-12T03:34:56.884Z,5
2018-06-12T03:35:57.583Z,5
2018-06-12T03:36:58.231Z,5
2018-06-12T03:37:58.907Z,5
2018-06-12T03:38:59.573Z,5
2018-06-12T03:40:00.241Z,5
2018-06-12T03:41:00.914Z,5
2018-06-12T03:42:01.586Z,5
2018-06-12T03:43:02.256Z,5
2018-06-12T03:44:02.927Z,5
2018-06-12T03:45:03.598Z,5
2018-06-12T03:46:04.270Z,5
2018-06-12T03:47:04.943Z,5
2018-06-12T03:48:05.613Z,5
2018-06-12T03:49:06.284Z,5
2018-06-12T03:50:06.957Z,5
2018-06-12T03:51:07.628Z,5
2018-06-12T03:52:08.298Z,5
2018-06-12T03:53:08.969Z,5
2018-06-12T03:54:09.640Z,5
2018-06-12T03:55:10.313Z,5
2018-06-12T03:56:10.986Z,5
2018-06-12T03:57:11.658Z,5
2018-06-12T03:58:12.334Z,5
2018-06-12T03:59:13.003Z,5
2018-06-12T04:00:13.672Z,5
2018-06-12T04:01:14.343Z,5
2018-06-12T04:02:15.014Z,5
2018-06-12T04:03:15.685Z,11
2018-06-12T04:04:16.358Z,11
2018-06-12T04:05:17.035Z,11
2018-06-12T04:06:17.792Z,11
2018-06-12T04:07:18.467Z,11
2018-06-12T04:08:19.135Z,11
2018-06-12T04:09:19.847Z,11
2018-06-12T04:10:20.480Z,11
2018-06-12T04:11:21.154Z,11
2018-06-12T04:12:21.825Z,16
2018-06-12T04:13:22.497Z,16
2018-06-12T04:14:23.170Z,16
2018-06-12T04:15:23.842Z,16
2018-06-12T04:16:24.514Z,16
2018-06-12T04:17:25.185Z,16
2018-06-12T04:18:25.857Z,16
2018-06-12T04:19:26.531Z,22
2018-06-12T04:20:27.245Z,22
2018-06-12T04:21:27.875Z,22
2018-06-12T04:22:28.549Z,28
2018-06-12T04:23:29.222Z,28
2018-06-12T04:24:29.893Z,33
2018-06-12T04:25:30.569Z,33
2018-06-12T04:26:31.240Z,33
2018-06-12T04:27:31.913Z,33
2018-06-12T04:28:32.585Z,33
2018-06-12T04:29:33.258Z,33
2018-06-12T04:30:33.931Z,39
2018-06-12T04:31:34.603Z,39
2018-06-12T04:32:35.276Z,39
2018-06-12T04:33:35.954Z,39
2018-06-12T04:34:36.664Z,39
2018-06-12T04:35:37.338Z,39
2018-06-12T04:36:38.011Z,39
2018-06-12T04:37:38.685Z,39
2018-06-12T04:38:39.356Z,39
2018-06-12T04:39:40.032Z,39
2018-06-12T04:40:40.704Z,45
2018-06-12T04:41:41.378Z,45
2018-06-12T04:42:42.052Z,50
2018-06-12T04:43:42.728Z,50
2018-06-12T04:44:43.438Z,56
2018-06-12T04:45:44.112Z,56
2018-06-12T04:46:44.822Z,56
2018-06-12T04:47:45.499Z,56
2018-06-12T04:48:46.173Z,56
2018-06-12T04:49:46.846Z,56
2018-06-12T04:50:47.520Z,56
2018-06-12T04:51:48.192Z,56
2018-06-12T04:52:48.865Z,61
2018-06-12T04:53:49.538Z,61
2018-06-12T04:54:50.255Z,61
2018-06-12T04:55:50.928Z,67
2018-06-12T04:56:51.611Z,67
2018-06-12T04:57:52.277Z,61
2018-06-12T04:58:52.948Z,61
2018-06-12T04:59:53.620Z,61
2018-06-12T05:00:54.296Z,56
2018-06-12T05:01:54.971Z,56
2018-06-12T05:02:55.682Z,56
2018-06-12T05:03:56.357Z,56
2018-06-12T05:04:57.035Z,56
2018-06-12T05:05:57.712Z,56
2018-06-12T05:06:58.416Z,56
2018-06-12T05:07:59.090Z,56
2018-06-12T05:08:59.764Z,56
2018-06-12T05:10:00.437Z,61
2018-06-12T05:11:01.112Z,61
2018-06-12T05:12:01.786Z,61
2018-06-12T05:13:02.459Z,61
2018-06-12T05:14:03.133Z,61
2018-06-12T05:15:03.808Z,61
2018-06-12T05:16:04.482Z,61
2018-06-12T05:17:05.155Z,61
2018-06-12T05:18:05.830Z,61
2018-06-12T05:19:06.503Z,61
2018-06-12T05:20:07.177Z,56
2018-06-12T05:21:07.852Z,50
2018-06-12T05:22:08.528Z,50
2018-06-12T05:23:09.202Z,45
2018-06-12T05:24:09.876Z,45
2018-06-12T05:25:10.553Z,50
2018-06-12T05:26:11.261Z,50
2018-06-12T05:27:11.934Z,50
2018-06-12T05:28:12.610Z,56
2018-06-12T05:29:13.285Z,56
2018-06-12T05:30:13.959Z,61
2018-06-12T05:31:14.640Z,61
2018-06-12T05:32:15.307Z,61
2018-06-12T05:33:15.979Z,67
2018-06-12T05:34:16.655Z,73
2018-06-12T05:35:17.328Z,73
2018-06-12T05:36:18.003Z,78
2018-06-12T05:37:18.678Z,78
2018-06-12T05:38:19.351Z,84
2018-06-12T05:39:20.026Z,84
2018-06-12T05:40:20.701Z,90
2018-06-12T05:41:21.377Z,90
2018-06-12T05:42:22.050Z,101
2018-06-12T05:43:22.726Z,112
2018-06-12T05:44:23.400Z,123
2018-06-12T05:45:24.075Z,129
2018-06-12T05:46:24.752Z,140
2018-06-12T05:47:25.428Z,151
2018-06-12T05:48:26.103Z,168
2018-06-12T05:49:26.778Z,185
2018-06-12T05:50:27.453Z,208
2018-06-12T05:51:28.130Z,225
2018-06-12T05:52:28.805Z,236
2018-06-12T05:53:29.484Z,247
2018-06-12T05:54:30.160Z,258
2018-06-12T05:55:30.840Z,270
2018-06-12T05:56:31.557Z,275
2018-06-12T05:57:32.229Z,286
2018-06-12T05:58:32.907Z,292
2018-06-12T05:59:33.621Z,298
2018-06-12T06:00:34.299Z,298
2018-06-12T06:01:34.975Z,292
2018-06-12T06:02:35.654Z,286
2018-06-12T06:03:36.331Z,275
2018-06-12T06:04:37.009Z,270
2018-06-12T06:05:37.691Z,264
2018-06-12T06:06:38.363Z,258
2018-06-12T06:07:39.042Z,253
2018-06-12T06:08:39.719Z,208
2018-06-12T06:09:40.396Z,191
2018-06-12T06:10:41.135Z,185
2018-06-12T06:11:41.787Z,185
2018-06-12T06:12:42.465Z,185
2018-06-12T06:13:43.182Z,185
2018-06-12T06:14:43.897Z,180
2018-06-12T06:15:44.576Z,168
2018-06-12T06:16:45.254Z,157
2018-06-12T06:17:45.967Z,146
2018-06-12T06:18:46.644Z,140
2018-06-12T06:19:47.323Z,135
2018-06-12T06:20:47.999Z,135
2018-06-12T06:21:48.681Z,140
2018-06-12T06:22:49.353Z,135
2018-06-12T06:23:50.032Z,135
2018-06-12T06:24:50.710Z,129
2018-06-12T06:25:51.387Z,129
2018-06-12T06:26:52.063Z,129
2018-06-12T06:27:52.742Z,129
2018-06-12T06:28:53.419Z,135
2018-06-12T06:29:54.100Z,140
2018-06-12T06:30:54.773Z,146
2018-06-12T06:31:55.450Z,146
2018-06-12T06:32:56.128Z,146
2018-06-12T06:33:56.805Z,146
2018-06-12T06:34:57.481Z,151
2018-06-12T06:35:58.159Z,157
2018-06-12T06:36:58.837Z,163
2018-06-12T06:37:59.513Z,168
2018-06-12T06:39:00.196Z,168
2018-06-12T06:40:00.866Z,163
2018-06-12T06:41:01.541Z,163
2018-06-12T06:42:02.221Z,157
2018-06-12T06:43:02.975Z,151
2018-06-12T06:44:03.632Z,157
2018-06-12T06:45:04.328Z,163
2018-06-12T06:46:05.005Z,168
2018-06-12T06:47:05.681Z,185
2018-06-12T06:48:06.360Z,202
2018-06-12T06:49:07.037Z,213
2018-06-12T06:50:07.716Z,219
2018-06-12T06:51:08.417Z,219
2018-06-12T06:52:09.070Z,219
2018-06-12T06:53:09.748Z,225
2018-06-12T06:54:10.426Z,225
2018-06-12T06:55:11.103Z,219
2018-06-12T06:56:11.781Z,225
2018-06-12T06:57:12.458Z,230
2018-06-12T06:58:13.172Z,236
2018-06-12T06:59:13.855Z,230
2018-06-12T07:00:14.567Z,225
2018-06-12T07:01:15.243Z,213
2018-06-12T07:02:15.920Z,202
2018-06-12T07:03:16.597Z,191
2018-06-12T07:04:17.274Z,185
2018-06-12T07:05:17.951Z,185
2018-06-12T07:06:18.628Z,185
2018-06-12T07:07:19.306Z,185
2018-06-12T07:08:19.987Z,202
2018-06-12T07:09:20.697Z,208
2018-06-12T07:10:21.374Z,219
2018-06-12T07:11:22.051Z,230
2018-06-12T07:12:22.728Z,247
2018-06-12T07:13:23.407Z,264
2018-06-12T07:14:24.085Z,275
2018-06-12T07:15:24.762Z,286
2018-06-12T07:16:25.441Z,309
2018-06-12T07:17:26.119Z,309
2018-06-12T07:18:26.797Z,326
2018-06-12T07:19:27.477Z,331
2018-06-12T07:20:28.155Z,331
2018-06-12T07:21:28.836Z,343
2018-06-12T07:22:29.515Z,382
2018-06-12T07:23:30.195Z,410
2018-06-12T07:24:30.912Z,624
2018-06-12T07:25:31.590Z,838
2018-06-12T07:26:32.270Z,416
2018-06-12T07:27:32.951Z,343
2018-06-12T07:28:33.628Z,326
2018-06-12T07:29:34.344Z,326
2018-06-12T07:30:35.024Z,343
2018-06-12T07:31:35.705Z,354
2018-06-12T07:32:36.385Z,388
2018-06-12T07:33:37.065Z,511
2018-06-12T07:34:37.745Z,405
2018-06-12T07:35:38.424Z,388
2018-06-12T07:36:39.106Z,472
2018-06-12T07:37:39.864Z,399
2018-06-12T07:38:40.469Z,337
2018-06-12T07:39:41.149Z,326
2018-06-12T07:40:41.866Z,292
2018-06-12T07:41:42.545Z,275
2018-06-12T07:42:43.224Z,270
2018-06-12T07:43:43.903Z,264
2018-06-12T07:44:44.581Z,253
2018-06-12T07:45:45.262Z,253
2018-06-12T07:46:45.940Z,258
2018-06-12T07:47:46.620Z,258
2018-06-12T07:48:47.298Z,264
2018-06-12T07:49:47.979Z,264
2018-06-12T07:50:48.657Z,270
2018-06-12T07:51:49.336Z,286
2018-06-12T07:52:50.022Z,315
2018-06-12T07:53:50.737Z,360
2018-06-12T07:54:51.419Z,393
2018-06-12T07:55:52.100Z,416
2018-06-12T07:56:52.826Z,466
2018-06-12T07:57:53.506Z,495
2018-06-12T07:58:54.193Z,511
2018-06-12T07:59:54.873Z,444
2018-06-12T08:00:55.595Z,416
2018-06-12T08:01:56.240Z,433
2018-06-12T08:02:56.927Z,495
2018-06-12T08:03:57.608Z,573
2018-06-12T08:04:58.289Z,714
2018-06-12T08:05:58.976Z,635
2018-06-12T08:06:59.662Z,652
2018-06-12T08:08:00.338Z,618
2018-06-12T08:09:01.025Z,562
2018-06-12T08:10:01.715Z,545
2018-06-12T08:11:02.395Z,517
2018-06-12T08:12:03.083Z,517
2018-06-12T08:13:03.800Z,528
2018-06-12T08:14:04.451Z,556
2018-06-12T08:15:05.134Z,562
2018-06-12T08:16:05.822Z,568
2018-06-12T08:17:06.509Z,568
2018-06-12T08:18:07.195Z,534
2018-06-12T08:19:07.880Z,545
2018-06-12T08:20:08.559Z,517
2018-06-12T08:21:09.243Z,500
2018-06-12T08:22:09.930Z,427
2018-06-12T08:23:10.619Z,416
2018-06-12T08:24:11.304Z,444
2018-06-12T08:25:11.985Z,472
2018-06-12T08:26:12.671Z,495
2018-06-12T08:27:13.356Z,523
2018-06-12T08:28:14.039Z,511
2018-06-12T08:29:14.722Z,517
2018-06-12T08:30:15.489Z,517
2018-06-12T08:31:16.094Z,506
2018-06-12T08:32:16.779Z,489
2018-06-12T08:33:17.461Z,483
2018-06-12T08:34:18.145Z,500
2018-06-12T08:35:18.835Z,495
2018-06-12T08:36:19.559Z,461
2018-06-12T08:37:20.241Z,444
2018-06-12T08:38:20.923Z,478
2018-06-12T08:39:21.612Z,573
2018-06-12T08:40:22.292Z,635
2018-06-12T08:41:22.979Z,658
2018-06-12T08:42:23.662Z,675
2018-06-12T08:43:24.347Z,646
2018-06-12T08:44:25.033Z,500
2018-06-12T08:45:25.719Z,388
2018-06-12T08:46:26.419Z,376
2018-06-12T08:47:27.086Z,371
2018-06-12T08:48:27.771Z,405
2018-06-12T08:49:28.455Z,382
2018-06-12T08:50:29.137Z,354
2018-06-12T08:51:29.822Z,331
2018-06-12T08:52:30.546Z,326
2018-06-12T08:53:31.274Z,360
2018-06-12T08:54:31.958Z,360
2018-06-12T08:55:32.641Z,331
2018-06-12T08:56:33.327Z,320
2018-06-12T08:57:34.011Z,315
2018-06-12T08:58:34.692Z,303
2018-06-12T08:59:35.378Z,309
2018-06-12T09:00:36.060Z,309
2018-06-12T09:01:36.779Z,320
2018-06-12T09:02:37.521Z,337
2018-06-12T09:03:38.187Z,348
2018-06-12T09:04:38.871Z,489
2018-06-12T09:05:39.554Z,421
2018-06-12T09:06:40.240Z,399
2018-06-12T09:07:40.932Z,371
2018-06-12T09:08:41.620Z,348
2018-06-12T09:09:42.345Z,320
2018-06-12T09:10:43.033Z,270
2018-06-12T09:11:43.719Z,236
2018-06-12T09:12:44.409Z,230
2018-06-12T09:13:45.089Z,258
2018-06-12T09:14:45.777Z,303
2018-06-12T09:15:46.460Z,365
2018-06-12T09:16:47.147Z,371
2018-06-12T09:17:47.826Z,393
2018-06-12T09:18:48.510Z,393
2018-06-12T09:19:49.193Z,388
2018-06-12T09:20:49.876Z,421
2018-06-12T09:21:50.559Z,416
2018-06-12T09:22:51.241Z,365
2018-06-12T09:23:51.926Z,343
2018-06-12T09:24:52.611Z,348
2018-06-12T09:25:53.293Z,388
2018-06-12T09:26:53.979Z,427
2018-06-12T09:27:54.664Z,466
2018-06-12T09:28:55.344Z,444
2018-06-12T09:29:56.028Z,410
2018-06-12T09:30:56.709Z,433
2018-06-12T09:31:57.393Z,472
2018-06-12T09:32:58.079Z,523
2018-06-12T09:33:58.796Z,489
2018-06-12T09:34:59.480Z,438
2018-06-12T09:36:00.164Z,365
2018-06-12T09:37:00.851Z,309
2018-06-12T09:38:01.535Z,292
2018-06-12T09:39:02.215Z,298
2018-06-12T09:40:02.900Z,303
2018-06-12T09:41:03.580Z,315
2018-06-12T09:42:04.277Z,286
2018-06-12T09:43:04.948Z,258
2018-06-12T09:44:05.631Z,281
2018-06-12T09:45:06.317Z,292
2018-06-12T09:46:07.036Z,292
2018-06-12T09:47:07.722Z,292
2018-06-12T09:48:08.408Z,303
2018-06-12T09:49:09.124Z,309
2018-06-12T09:50:09.767Z,331
2018-06-12T09:51:10.448Z,365
2018-06-12T09:52:11.131Z,393
2018-06-12T09:53:11.816Z,365
2018-06-12T09:54:12.497Z,376
2018-06-12T09:55:13.177Z,348
2018-06-12T09:56:13.857Z,354
2018-06-12T09:57:14.540Z,376
2018-06-12T09:58:15.221Z,388
2018-06-12T09:59:15.905Z,388
2018-06-12T10:00:16.623Z,365
2018-06-12T10:01:17.302Z,337
2018-06-12T10:02:17.983Z,326
2018-06-12T10:03:18.705Z,320
2018-06-12T10:04:19.388Z,326
2018-06-12T10:05:20.068Z,348
2018-06-12T10:06:20.757Z,388
2018-06-12T10:07:21.441Z,438
2018-06-12T10:08:22.122Z,450
2018-06-12T10:09:22.811Z,421
2018-06-12T10:10:23.493Z,405
2018-06-12T10:11:24.175Z,405
2018-06-12T10:12:24.865Z,405
2018-06-12T10:13:25.552Z,399
2018-06-12T10:14:26.230Z,399
2018-06-12T10:15:26.916Z,416
2018-06-12T10:16:27.597Z,478
2018-06-12T10:17:28.281Z,506
2018-06-12T10:18:28.962Z,500
2018-06-12T10:19:29.645Z,517
2018-06-12T10:20:30.328Z,523
2018-06-12T10:21:31.009Z,517
2018-06-12T10:22:31.692Z,506
2018-06-12T10:23:32.373Z,511
2018-06-12T10:24:33.057Z,478
2018-06-12T10:25:33.744Z,461
2018-06-12T10:26:34.422Z,433
2018-06-12T10:27:35.109Z,393
2018-06-12T10:28:35.788Z,376
2018-06-12T10:29:36.511Z,360
2018-06-12T10:30:37.196Z,360
2018-06-12T10:31:37.915Z,360
2018-06-12T10:32:38.598Z,354
2018-06-12T10:33:39.279Z,360
2018-06-12T10:34:39.962Z,371
2018-06-12T10:35:40.645Z,382
2018-06-12T10:36:41.327Z,382
2018-06-12T10:37:42.010Z,382
2018-06-12T10:38:42.692Z,382
2018-06-12T10:39:43.375Z,382
2018-06-12T10:40:44.059Z,382
2018-06-12T10:41:44.740Z,388
2018-06-12T10:42:45.424Z,399
2018-06-12T10:43:46.144Z,405
2018-06-12T10:44:46.787Z,416
2018-06-12T10:45:47.471Z,416
2018-06-12T10:46:48.158Z,416
2018-06-12T10:47:48.836Z,421
2018-06-12T10:48:49.519Z,416
2018-06-12T10:49:50.202Z,405
2018-06-12T10:50:50.884Z,399
2018-06-12T10:51:51.567Z,393
2018-06-12T10:52:52.252Z,382
2018-06-12T10:53:52.932Z,371
2018-06-12T10:54:53.654Z,360
2018-06-12T10:55:54.337Z,354
2018-06-12T10:56:55.086Z,354
2018-06-12T10:57:55.730Z,360
2018-06-12T10:58:56.412Z,371
2018-06-12T10:59:57.094Z,376
2018-06-12T11:00:57.775Z,382
2018-06-12T11:01:58.460Z,382
2018-06-12T11:02:59.140Z,376
2018-06-12T11:03:59.823Z,376
2018-06-12T11:05:00.507Z,376
2018-06-12T11:06:01.226Z,376
2018-06-12T11:07:01.910Z,376
2018-06-12T11:08:02.592Z,371
2018-06-12T11:09:03.274Z,376
2018-06-12T11:10:03.960Z,382
2018-06-12T11:11:04.639Z,388
2018-06-12T11:12:05.322Z,399
2018-06-12T11:13:06.004Z,405
2018-06-12T11:14:06.694Z,410
2018-06-12T11:15:07.410Z,410
2018-06-12T11:16:08.094Z,399
2018-06-12T11:17:08.774Z,399
2018-06-12T11:18:09.458Z,405
2018-06-12T11:19:10.145Z,405
2018-06-12T11:20:10.822Z,405
2018-06-12T11:21:11.505Z,399
2018-06-12T11:22:12.187Z,405
2018-06-12T11:23:12.870Z,416
2018-06-12T11:24:13.551Z,433
2018-06-12T11:25:14.233Z,455
2018-06-12T11:26:14.916Z,466
2018-06-12T11:27:15.649Z,461
2018-06-12T11:28:16.280Z,444
2018-06-12T11:29:16.962Z,438
2018-06-12T11:30:17.648Z,421
2018-06-12T11:31:18.331Z,416
2018-06-12T11:32:19.048Z,421
2018-06-12T11:33:19.730Z,410
2018-06-12T11:34:20.411Z,399
2018-06-12T11:35:21.092Z,382
2018-06-12T11:36:21.777Z,360
2018-06-12T11:37:22.460Z,343
2018-06-12T11:38:23.183Z,326
2018-06-12T11:39:23.861Z,326
2018-06-12T11:40:24.543Z,331
2018-06-12T11:41:25.226Z,337
2018-06-12T11:42:25.908Z,354
2018-06-12T11:43:26.591Z,360
2018-06-12T11:44:27.272Z,360
2018-06-12T11:45:27.956Z,360
2018-06-12T11:46:28.638Z,360
2018-06-12T11:47:29.322Z,371
2018-06-12T11:48:30.005Z,399
2018-06-12T11:49:30.685Z,416
2018-06-12T11:50:31.369Z,433
2018-06-12T11:51:32.050Z,438
2018-06-12T11:52:32.733Z,438
2018-06-12T11:53:33.415Z,433
2018-06-12T11:54:34.097Z,438
2018-06-12T11:55:34.781Z,450
2018-06-12T11:56:35.464Z,410
2018-06-12T11:57:36.150Z,405
2018-06-12T11:58:36.827Z,405
2018-06-12T11:59:37.511Z,410
2018-06-12T12:00:38.192Z,410
2018-06-12T12:01:38.877Z,427
2018-06-12T12:02:39.555Z,433
2018-06-12T12:03:40.237Z,444
2018-06-12T12:04:40.921Z,438
2018-06-12T12:05:41.603Z,433
2018-06-12T12:06:42.287Z,416
2018-06-12T12:07:43.008Z,399
2018-06-12T12:08:43.689Z,388
2018-06-12T12:09:44.371Z,376
2018-06-12T12:10:45.056Z,360
2018-06-12T12:11:45.736Z,326
2018-06-12T12:12:46.416Z,315
2018-06-12T12:13:47.098Z,292
2018-06-12T12:14:47.781Z,286
2018-06-12T12:15:48.462Z,286
2018-06-12T12:16:49.144Z,298
2018-06-12T12:17:49.824Z,315
2018-06-12T12:18:50.505Z,320
2018-06-12T12:19:51.224Z,331
2018-06-12T12:20:51.907Z,343
2018-06-12T12:21:52.588Z,360
2018-06-12T12:22:53.273Z,371
2018-06-12T12:23:53.990Z,371
2018-06-12T12:24:54.672Z,371
2018-06-12T12:25:55.356Z,360
2018-06-12T12:26:56.040Z,354
2018-06-12T12:27:56.719Z,354
2018-06-12T12:28:57.400Z,354
2018-06-12T12:29:58.079Z,360
2018-06-12T12:30:58.761Z,365
2018-06-12T12:31:59.442Z,371
2018-06-12T12:33:00.126Z,371
2018-06-12T12:34:00.805Z,376
2018-06-12T12:35:01.500Z,388
2018-06-12T12:36:02.174Z,399
2018-06-12T12:37:02.855Z,393
2018-06-12T12:38:03.540Z,393
2018-06-12T12:39:04.220Z,393
2018-06-12T12:40:04.903Z,393
2018-06-12T12:41:05.585Z,393
2018-06-12T12:42:06.267Z,388
2018-06-12T12:43:06.949Z,382
2018-06-12T12:44:07.634Z,382
2018-06-12T12:45:08.315Z,371
2018-06-12T12:46:08.997Z,365
2018-06-12T12:47:09.679Z,360
2018-06-12T12:48:10.363Z,354
2018-06-12T12:49:11.043Z,343
2018-06-12T12:50:11.724Z,326
2018-06-12T12:51:12.406Z,309
2018-06-12T12:52:13.088Z,303
2018-06-12T12:53:13.769Z,303
2018-06-12T12:54:14.451Z,309
2018-06-12T12:55:15.132Z,315
2018-06-12T12:56:15.811Z,315
2018-06-12T12:57:16.494Z,320
2018-06-12T12:58:17.176Z,320
2018-06-12T12:59:17.857Z,326
2018-06-12T13:00:18.538Z,331
2018-06-12T13:01:19.219Z,337
2018-06-12T13:02:19.899Z,337
2018-06-12T13:03:20.581Z,337
2018-06-12T13:04:21.263Z,343
2018-06-12T13:05:21.945Z,343
2018-06-12T13:06:22.663Z,348
2018-06-12T13:07:23.392Z,343
2018-06-12T13:08:24.074Z,343
2018-06-12T13:09:24.755Z,348
2018-06-12T13:10:25.438Z,343
2018-06-12T13:11:26.121Z,348
2018-06-12T13:12:26.799Z,348
2018-06-12T13:13:27.483Z,360
2018-06-12T13:14:28.163Z,365
2018-06-12T13:15:28.844Z,371
2018-06-12T13:16:29.525Z,371
2018-06-12T13:17:30.255Z,360
2018-06-12T13:18:30.936Z,354
2018-06-12T13:19:31.618Z,343
2018-06-12T13:20:32.298Z,331
2018-06-12T13:21:32.979Z,331
2018-06-12T13:22:33.660Z,320
2018-06-12T13:23:34.341Z,298
2018-06-12T13:24:35.022Z,281
2018-06-12T13:25:35.703Z,264
2018-06-12T13:26:36.419Z,253
2018-06-12T13:27:37.116Z,247
2018-06-12T13:28:37.797Z,247
2018-06-12T13:29:38.476Z,253
2018-06-12T13:30:39.156Z,264
2018-06-12T13:31:39.836Z,281
2018-06-12T13:32:40.517Z,298
2018-06-12T13:33:41.206Z,309
2018-06-12T13:34:41.876Z,315
2018-06-12T13:35:42.558Z,320
2018-06-12T13:36:43.274Z,326
2018-06-12T13:37:43.956Z,326
2018-06-12T13:38:44.637Z,320
2018-06-12T13:39:45.320Z,309
2018-06-12T13:40:45.998Z,303
2018-06-12T13:41:46.677Z,292
2018-06-12T13:42:47.358Z,292
2018-06-12T13:43:48.041Z,286
2018-06-12T13:44:48.722Z,281
2018-06-12T13:45:49.403Z,281
2018-06-12T13:46:50.083Z,281
2018-06-12T13:47:50.762Z,286
2018-06-12T13:48:51.443Z,286
2018-06-12T13:49:52.122Z,286
2018-06-12T13:50:52.805Z,292
2018-06-12T13:51:53.485Z,292
2018-06-12T13:52:54.168Z,292
2018-06-12T13:53:54.846Z,286
2018-06-12T13:54:55.565Z,281
2018-06-12T13:55:56.247Z,286
2018-06-12T13:56:56.925Z,286
2018-06-12T13:57:57.640Z,298
2018-06-12T13:58:58.357Z,315
2018-06-12T13:59:59.037Z,315
2018-06-12T14:00:59.718Z,320
2018-06-12T14:02:00.399Z,315
2018-06-12T14:03:01.079Z,315
2018-06-12T14:04:01.760Z,320
2018-06-12T14:05:02.443Z,315
2018-06-12T14:06:03.119Z,326
2018-06-12T14:07:03.804Z,331
2018-06-12T14:08:04.477Z,348
2018-06-12T14:09:05.158Z,360
2018-06-12T14:10:05.842Z,348
2018-06-12T14:11:06.520Z,326
2018-06-12T14:12:07.203Z,286
2018-06-12T14:13:07.880Z,264
2018-06-12T14:14:08.561Z,236
2018-06-12T14:15:09.244Z,219